Relevés horaires Schaffen (Belgique)


Relevés horaires à Schaffen - Jeudi 23 Avr. 2026
Heure UTC1 Température [°C] Vent [km/h] Hum. [%] Pres.4 [hPa] Visi. [Km] Nébu. [octa] Préc.5 [mm] Cond.
2m. Res. Ros. Dir.2 Vit. Moy. Raf.3
23:00 7.8 7.1 -0.9 N 5.6 -- 7.4 54 1027(0.0/3h) >70 -- -- --
22:00 8.7 8.1 -1.5 N 5.6 -- 7.4 49 1027(0.5/3h) >70 -- -- --
21:00 9.0 8.4 -1.9 N 5.6 -- 14.8 46 1027(0.5/3h) 25 0/8 -- --
20:00 11.1 10.4 -2.4 N 7.4 -- 11.1 39 1027(0.2/3h) 25 0/8 -- --
19:00 13.0 12.6 0.4 N 7.4 -- 14.8 42 1026.5(-0.4/3h) 25 0/8 -- --
18:00 16.4 16.4 2.0 N 9.3 -- 13.0 38 1026.4(-0.7/3h) 25 0/8 -- --
17:00 17.8 17.8 -0.8 N 9.3 -- 13.0 28 1026.5(-1.2/3h) 25 1/8 -- --
16:00 18.9 18.9 -3.4 N 5.6 -- 13.0 22 1026.7(-1.6/3h) 25 1/8 -- --
15:00 19.4 19.4 -5.9 N 7.4 -- 13.0 17 1027(-1.6/3h) 25 1/8 -- --
14:00 19.0 19.0 -4.9 N 5.6 -- 13.0 19 1027.7(-1.6/3h) 25 1/8 -- --
13:00 18.4 18.4 -1.7 NE 3.7 -- 13.0 25 1028.4(-1.5/3h) 25 1/8 -- --
12:00 17.8 17.8 2.2 N 5.6 -- 11.1 35 1028.9(-1.1/3h) 25 1/8 -- --
11:00 16.7 16.7 -0.5 N 3.7 -- 11.1 31 1029.5(-0.5/3h) 25 1/8 -- --
10:00 15.7 15.7 1.1 N 5.6 -- 11.1 37 1030(0.3/3h) 25 1/8 -- --
09:00 13.5 13.5 3.3 NNO 1.9 -- 7.4 50 1030.2(0.6/3h) 25 0/8 -- --
08:00 11.0 11.0 3.9 NNO 1.9 -- 5.6 62 1030(1.1/3h) 25 0/8 -- --
07:00 8.1 8.1 3.3 NNE 3.7 -- 5.6 72 1029.7(1.1/3h) 40 -- -- --
06:00 5.6 5.6 2.5 NNO 1.9 -- 5.6 80 1029.7(0.9/3h) 22 -- -- --
05:00 4.1 4.1 1.2 NNE 3.7 -- 3.7 81 1029(0.6/3h) 15 -- -- --
04:00 5.5 5.5 1.0 NNO 1.9 -- 3.7 73 1028.7(0.6/3h) 40 -- -- --
03:00 5.5 5.5 0.3 N 3.7 -- 5.6 69 1028.7(0.5/3h) 15 -- -- --
02:00 6.6 6.6 -0.5 N 3.7 -- 3.7 60 1028.4(0.4/3h) 16 -- -- --
01:00 7.4 7.4 -0.8 N 3.7 -- 5.6 56 1028(0.3/3h) 45 -- -- --
00:00 9.2 9.2 -1.0 N 3.7 -- 11.1 49 1028(0.9/3h) >70 -- -- --

1 Coordinated Universal Time. Actuellement il est 16:00 locale et 14:00 UTC.

2 Le vent souffle depuis la direction indiquée vers la direction oposée.

3 Les rafales max. sont disponible 40 min après l'heure du relevé.

4 Pour les stations d'altitude (plus de 600m) le géopotentiel du niveau le plus proche de la pression obligatoire est indiqué.

5 Les stations disposant d'un diffuseur peuvent indiquer "trace". Cela signifie que des précipitations ont touchés le sol mais que la quantité est inférieure à 0.1 mm.

Récapitulatif de la journée
Température [°C] Vent [km/h] Ensoleillement4 [h] Precipitations totale5 [mm] Pression [Hpa]
Min1 Max.2 Moy.3 Max. Min Max.
4.1 19.8 0 14.8 0 h 0 min 0 1026.4 1030.2

1 Température minimale relevée entre 18:00 UTC la veille et 18:00 UTC le jour donné.

2 Température maximale relevée entre 06:00 UTC le jour donné et 06:00 UTC le lendemain.

3 Vent moyen de la journée basé sur les relevés horaires.

4 Ensoleillement en heures relevé entre 06:00 UTC la veille et 06:00 UTC le jour donné.

5 Précipitations totales tombées entre 06:00 UTC la jour donné et 06:00 UTC le lendemain.

Graphiques horaires